Hauptseite
METAR-TAF:

METAR-TAF

Flughäfen :

Sétif, Algerien

Breite: 36-11N, Länge: 005-25E, Höhe: 1038 m

Beobachtung

Neuester Wetterbericht von vor 29 Minuten, um 09:00 UTC
Wind 1 kt aus Süd
Temperatur 8°C
Luftfeuchtigkeit 61%
Luftdruck 1023 hPa
Sichtweite 10 km oder mehr
keine Wolken unter 1500 m und keine Kumulonimbus oder Gewitterwolken

METAR: DAAS 240900Z 18001KT CAVOK 08/01 Q1023

Zeit: 10:29 (09:29 UTC)

Prognose

Neuester Wetterbericht von vor 4 Stunden und 29 Minuten, um 05:00 UTC
Gültige Prognose vom 24 um 06 UTC bis 25 um 06 UTC
Wind 8 kt aus Südwest
Sichtweite 10 km oder mehr
Leicht bewölkt in der Höhe von 2000 ft
Wahrscheinlichkeit 30% :
Zeitweise
vom 24 um 06 UTC bis 24 um 09 UTC
Sichtweite: 2000 m
feuchter Dunst
Übergehend zu
vom 24 um 10 UTC bis 24 um 12 UTC
Wind 12 kt aus Nordwest

TAF: DAAS 240500Z 2406/2506 23008KT 9999 FEW020 PROB30 TEMPO 2406/2409 2000 BR BKN0010 BECMG 2410/2412 31012KT

Wetterbeobachtungen und Prognosen von mehr als 4000 Flughäfen (METAR und TAF Bericht).

Die verfügbaren Stationen werden durch gelbe und rote Markierungen auf der Karte dargestellt.

Führen Sie die Maus auf sie, um den Namen der Station zu sehen.

Darauf klicken, um die Beobachtung von Wetterbeobachtungen und Prognosen zu sehen.

Um die Karte zu ändern : klicken Sie auf den grünen Tasten mit einem schwarzen Kreuz Zum Vergrößern, auf den grünen Button mit einem Gedankenstrich zu verkleinern, oder auf die grünen Pfeile für benachbarte Karten.


METAR-TAF: